sensor_id;sensor_type;location;lat;lon;timestamp;temperature;humidity
216;HTU21D;45701;48.81287245;9.14186865;2022-09-09T00:00:53;17.03;63.23
216;HTU21D;45701;48.81287245;9.14186865;2022-09-09T00:03:25;17.20;62.21
216;HTU21D;45701;48.81287245;9.14186865;2022-09-09T00:05:58;17.10;62.99
216;HTU21D;45701;48.81287245;9.14186865;2022-09-09T00:08:34;17.23;62.79
216;HTU21D;45701;48.81287245;9.14186865;2022-09-09T00:11:05;17.10;62.74
216;HTU21D;45701;48.81287245;9.14186865;2022-09-09T00:13:37;17.11;62.35
216;HTU21D;45701;48.81287245;9.14186865;2022-09-09T00:16:10;17.36;61.02
216;HTU21D;45701;48.81287245;9.14186865;2022-09-09T00:18:49;17.39;61.70
216;HTU21D;45701;48.81287245;9.14186865;2022-09-09T00:21:18;17.47;60.98
216;HTU21D;45701;48.81287245;9.14186865;2022-09-09T00:23:48;17.59;59.86
216;HTU21D;45701;48.81287245;9.14186865;2022-09-09T00:26:21;17.69;57.91
216;HTU21D;45701;48.81287245;9.14186865;2022-09-09T00:29:04;17.89;57.39
216;HTU21D;45701;48.81287245;9.14186865;2022-09-09T00:31:32;17.99;57.57
216;HTU21D;45701;48.81287245;9.14186865;2022-09-09T00:34:03;18.07;57.32
216;HTU21D;45701;48.81287245;9.14186865;2022-09-09T00:36:32;17.99;56.75
216;HTU21D;45701;48.81287245;9.14186865;2022-09-09T00:39:01;18.10;56.56
216;HTU21D;45701;48.81287245;9.14186865;2022-09-09T00:41:35;18.17;56.80
216;HTU21D;45701;48.81287245;9.14186865;2022-09-09T00:44:18;18.15;55.40
216;HTU21D;45701;48.81287245;9.14186865;2022-09-09T00:47:01;18.29;55.60
216;HTU21D;45701;48.81287245;9.14186865;2022-09-09T00:49:39;18.53;54.64
216;HTU21D;45701;48.81287245;9.14186865;2022-09-09T00:52:21;18.47;54.87
216;HTU21D;45701;48.81287245;9.14186865;2022-09-09T00:54:54;18.49;54.89
216;HTU21D;45701;48.81287245;9.14186865;2022-09-09T00:57:26;18.52;56.32
216;HTU21D;45701;48.81287245;9.14186865;2022-09-09T01:00:14;18.40;55.39
216;HTU21D;45701;48.81287245;9.14186865;2022-09-09T01:02:52;18.67;55.11
216;HTU21D;45701;48.81287245;9.14186865;2022-09-09T01:05:24;18.66;54.89
216;HTU21D;45701;48.81287245;9.14186865;2022-09-09T01:07:52;18.72;55.43
216;HTU21D;45701;48.81287245;9.14186865;2022-09-09T01:10:26;18.83;54.72
216;HTU21D;45701;48.81287245;9.14186865;2022-09-09T01:12:58;18.76;55.23
216;HTU21D;45701;48.81287245;9.14186865;2022-09-09T01:15:32;18.63;57.09
216;HTU21D;45701;48.81287245;9.14186865;2022-09-09T01:18:02;18.73;56.64
216;HTU21D;45701;48.81287245;9.14186865;2022-09-09T01:20:39;18.64;56.34
216;HTU21D;45701;48.81287245;9.14186865;2022-09-09T01:23:20;18.63;56.90
216;HTU21D;45701;48.81287245;9.14186865;2022-09-09T01:26:13;18.65;56.92
216;HTU21D;45701;48.81287245;9.14186865;2022-09-09T01:28:43;18.62;56.97
216;HTU21D;45701;48.81287245;9.14186865;2022-09-09T01:31:16;18.59;57.20
216;HTU21D;45701;48.81287245;9.14186865;2022-09-09T01:33:46;18.62;56.79
216;HTU21D;45701;48.81287245;9.14186865;2022-09-09T01:36:19;18.49;57.71
216;HTU21D;45701;48.81287245;9.14186865;2022-09-09T01:38:50;18.39;57.68
216;HTU21D;45701;48.81287245;9.14186865;2022-09-09T01:41:19;18.18;58.04
216;HTU21D;45701;48.81287245;9.14186865;2022-09-09T01:43:52;18.21;58.92
216;HTU21D;45701;48.81287245;9.14186865;2022-09-09T01:46:21;17.94;59.32
216;HTU21D;45701;48.81287245;9.14186865;2022-09-09T01:48:49;17.91;59.98
216;HTU21D;45701;48.81287245;9.14186865;2022-09-09T01:51:16;17.97;59.56
216;HTU21D;45701;48.81287245;9.14186865;2022-09-09T01:53:44;18.14;58.79
216;HTU21D;45701;48.81287245;9.14186865;2022-09-09T01:56:22;18.07;59.41
216;HTU21D;45701;48.81287245;9.14186865;2022-09-09T01:59:03;18.15;57.77
216;HTU21D;45701;48.81287245;9.14186865;2022-09-09T02:01:42;18.08;58.08
216;HTU21D;45701;48.81287245;9.14186865;2022-09-09T02:04:27;18.00;57.63
216;HTU21D;45701;48.81287245;9.14186865;2022-09-09T02:07:00;18.00;58.02
216;HTU21D;45701;48.81287245;9.14186865;2022-09-09T02:09:30;18.05;57.87
216;HTU21D;45701;48.81287245;9.14186865;2022-09-09T02:12:01;17.91;59.51
216;HTU21D;45701;48.81287245;9.14186865;2022-09-09T02:14:40;17.98;58.16
216;HTU21D;45701;48.81287245;9.14186865;2022-09-09T02:17:10;17.87;59.12
216;HTU21D;45701;48.81287245;9.14186865;2022-09-09T02:19:55;18.12;57.65
216;HTU21D;45701;48.81287245;9.14186865;2022-09-09T02:22:37;17.85;59.36
216;HTU21D;45701;48.81287245;9.14186865;2022-09-09T02:25:07;17.82;58.87
216;HTU21D;45701;48.81287245;9.14186865;2022-09-09T02:27:36;17.87;58.80
216;HTU21D;45701;48.81287245;9.14186865;2022-09-09T02:30:04;17.72;59.31
216;HTU21D;45701;48.81287245;9.14186865;2022-09-09T02:32:40;17.68;59.77
216;HTU21D;45701;48.81287245;9.14186865;2022-09-09T02:35:13;17.48;60.42
216;HTU21D;45701;48.81287245;9.14186865;2022-09-09T02:37:42;17.45;60.64
216;HTU21D;45701;48.81287245;9.14186865;2022-09-09T02:40:12;17.41;60.79
216;HTU21D;45701;48.81287245;9.14186865;2022-09-09T02:42:46;17.39;61.07
216;HTU21D;45701;48.81287245;9.14186865;2022-09-09T02:45:15;17.43;61.18
216;HTU21D;45701;48.81287245;9.14186865;2022-09-09T02:47:50;17.40;61.61
216;HTU21D;45701;48.81287245;9.14186865;2022-09-09T02:50:23;17.36;61.78
216;HTU21D;45701;48.81287245;9.14186865;2022-09-09T02:53:05;17.22;63.06
216;HTU21D;45701;48.81287245;9.14186865;2022-09-09T02:55:41;17.20;62.77
216;HTU21D;45701;48.81287245;9.14186865;2022-09-09T02:58:15;17.10;63.60
216;HTU21D;45701;48.81287245;9.14186865;2022-09-09T03:00:49;16.94;63.52
216;HTU21D;45701;48.81287245;9.14186865;2022-09-09T03:03:18;17.02;63.17
216;HTU21D;45701;48.81287245;9.14186865;2022-09-09T03:05:47;17.19;62.73
216;HTU21D;45701;48.81287245;9.14186865;2022-09-09T03:08:15;17.43;61.76
216;HTU21D;45701;48.81287245;9.14186865;2022-09-09T03:10:43;17.58;61.12
216;HTU21D;45701;48.81287245;9.14186865;2022-09-09T03:13:14;17.48;61.92
216;HTU21D;45701;48.81287245;9.14186865;2022-09-09T03:15:41;17.43;62.09
216;HTU21D;45701;48.81287245;9.14186865;2022-09-09T03:18:13;17.36;62.66
216;HTU21D;45701;48.81287245;9.14186865;2022-09-09T03:20:40;17.25;63.07
216;HTU21D;45701;48.81287245;9.14186865;2022-09-09T03:23:07;17.28;63.39
216;HTU21D;45701;48.81287245;9.14186865;2022-09-09T03:25:35;17.32;63.01
216;HTU21D;45701;48.81287245;9.14186865;2022-09-09T03:28:01;17.33;63.33
216;HTU21D;45701;48.81287245;9.14186865;2022-09-09T03:30:30;17.15;63.85
216;HTU21D;45701;48.81287245;9.14186865;2022-09-09T03:32:57;16.91;64.57
216;HTU21D;45701;48.81287245;9.14186865;2022-09-09T03:35:29;16.89;64.71
216;HTU21D;45701;48.81287245;9.14186865;2022-09-09T03:37:56;17.02;64.55
216;HTU21D;45701;48.81287245;9.14186865;2022-09-09T03:40:23;16.80;65.65
216;HTU21D;45701;48.81287245;9.14186865;2022-09-09T03:42:50;16.80;66.06
216;HTU21D;45701;48.81287245;9.14186865;2022-09-09T03:45:17;16.70;66.02
216;HTU21D;45701;48.81287245;9.14186865;2022-09-09T03:47:45;16.75;65.59
216;HTU21D;45701;48.81287245;9.14186865;2022-09-09T03:50:12;16.72;65.39
216;HTU21D;45701;48.81287245;9.14186865;2022-09-09T03:52:44;16.82;64.58
216;HTU21D;45701;48.81287245;9.14186865;2022-09-09T03:55:17;17.07;61.61
216;HTU21D;45701;48.81287245;9.14186865;2022-09-09T03:57:45;17.09;61.71
216;HTU21D;45701;48.81287245;9.14186865;2022-09-09T04:00:12;17.25;61.18
216;HTU21D;45701;48.81287245;9.14186865;2022-09-09T04:02:42;17.20;61.20
216;HTU21D;45701;48.81287245;9.14186865;2022-09-09T04:05:14;17.33;61.20
216;HTU21D;45701;48.81287245;9.14186865;2022-09-09T04:07:43;17.20;61.50
216;HTU21D;45701;48.81287245;9.14186865;2022-09-09T04:10:10;17.24;61.93
216;HTU21D;45701;48.81287245;9.14186865;2022-09-09T04:12:38;17.41;59.70
216;HTU21D;45701;48.81287245;9.14186865;2022-09-09T04:15:06;17.40;59.53
216;HTU21D;45701;48.81287245;9.14186865;2022-09-09T04:17:34;17.49;59.35
216;HTU21D;45701;48.81287245;9.14186865;2022-09-09T04:20:02;17.66;58.75
216;HTU21D;45701;48.81287245;9.14186865;2022-09-09T04:22:30;17.66;58.85
216;HTU21D;45701;48.81287245;9.14186865;2022-09-09T04:24:57;17.62;59.32
216;HTU21D;45701;48.81287245;9.14186865;2022-09-09T04:27:24;17.72;60.12
216;HTU21D;45701;48.81287245;9.14186865;2022-09-09T04:29:50;17.84;59.55
216;HTU21D;45701;48.81287245;9.14186865;2022-09-09T04:32:17;17.90;59.37
216;HTU21D;45701;48.81287245;9.14186865;2022-09-09T04:34:45;17.64;60.76
216;HTU21D;45701;48.81287245;9.14186865;2022-09-09T04:37:13;17.70;60.69
216;HTU21D;45701;48.81287245;9.14186865;2022-09-09T04:39:43;17.95;60.19
216;HTU21D;45701;48.81287245;9.14186865;2022-09-09T04:42:10;17.82;60.14
216;HTU21D;45701;48.81287245;9.14186865;2022-09-09T04:44:37;17.77;61.28
216;HTU21D;45701;48.81287245;9.14186865;2022-09-09T04:47:05;17.45;61.77
216;HTU21D;45701;48.81287245;9.14186865;2022-09-09T04:49:31;17.40;62.15
216;HTU21D;45701;48.81287245;9.14186865;2022-09-09T04:51:58;17.51;61.82
216;HTU21D;45701;48.81287245;9.14186865;2022-09-09T04:54:25;17.61;61.85
216;HTU21D;45701;48.81287245;9.14186865;2022-09-09T04:56:55;17.70;60.96
216;HTU21D;45701;48.81287245;9.14186865;2022-09-09T04:59:22;17.69;60.61
216;HTU21D;45701;48.81287245;9.14186865;2022-09-09T05:01:52;17.59;60.77
216;HTU21D;45701;48.81287245;9.14186865;2022-09-09T05:04:20;17.62;61.38
216;HTU21D;45701;48.81287245;9.14186865;2022-09-09T05:06:47;17.68;61.23
216;HTU21D;45701;48.81287245;9.14186865;2022-09-09T05:09:14;17.77;59.21
216;HTU21D;45701;48.81287245;9.14186865;2022-09-09T05:11:42;17.75;59.83
216;HTU21D;45701;48.81287245;9.14186865;2022-09-09T05:14:18;17.69;59.80
216;HTU21D;45701;48.81287245;9.14186865;2022-09-09T05:16:45;17.60;59.54
216;HTU21D;45701;48.81287245;9.14186865;2022-09-09T05:19:12;17.64;59.39
216;HTU21D;45701;48.81287245;9.14186865;2022-09-09T05:21:46;17.67;59.07
216;HTU21D;45701;48.81287245;9.14186865;2022-09-09T05:24:16;17.67;59.32
216;HTU21D;45701;48.81287245;9.14186865;2022-09-09T05:26:45;17.76;58.58
216;HTU21D;45701;48.81287245;9.14186865;2022-09-09T05:29:11;17.77;58.95
216;HTU21D;45701;48.81287245;9.14186865;2022-09-09T05:31:39;17.89;58.47
216;HTU21D;45701;48.81287245;9.14186865;2022-09-09T05:34:10;17.85;58.71
216;HTU21D;45701;48.81287245;9.14186865;2022-09-09T05:36:37;17.74;59.10
216;HTU21D;45701;48.81287245;9.14186865;2022-09-09T05:39:04;17.73;59.22
216;HTU21D;45701;48.81287245;9.14186865;2022-09-09T05:41:32;17.75;59.03
216;HTU21D;45701;48.81287245;9.14186865;2022-09-09T05:44:02;17.78;59.04
216;HTU21D;45701;48.81287245;9.14186865;2022-09-09T05:46:31;17.74;59.51
216;HTU21D;45701;48.81287245;9.14186865;2022-09-09T05:48:59;17.65;59.63
216;HTU21D;45701;48.81287245;9.14186865;2022-09-09T05:51:29;17.63;59.91
216;HTU21D;45701;48.81287245;9.14186865;2022-09-09T05:53:57;17.73;59.70
216;HTU21D;45701;48.81287245;9.14186865;2022-09-09T05:56:27;17.82;59.14
216;HTU21D;45701;48.81287245;9.14186865;2022-09-09T05:58:56;17.69;59.28
216;HTU21D;45701;48.81287245;9.14186865;2022-09-09T06:01:25;17.79;58.99
216;HTU21D;45701;48.81287245;9.14186865;2022-09-09T06:03:52;17.83;59.28
216;HTU21D;45701;48.81287245;9.14186865;2022-09-09T06:06:24;17.87;59.26
216;HTU21D;45701;48.81287245;9.14186865;2022-09-09T06:08:54;17.93;59.29
216;HTU21D;45701;48.81287245;9.14186865;2022-09-09T06:11:23;18.13;58.51
216;HTU21D;45701;48.81287245;9.14186865;2022-09-09T06:13:52;18.05;59.05
216;HTU21D;45701;48.81287245;9.14186865;2022-09-09T06:16:21;17.96;59.45
216;HTU21D;45701;48.81287245;9.14186865;2022-09-09T06:18:50;18.05;59.36
216;HTU21D;45701;48.81287245;9.14186865;2022-09-09T06:21:19;18.14;58.74
216;HTU21D;45701;48.81287245;9.14186865;2022-09-09T06:23:48;18.17;59.09
216;HTU21D;45701;48.81287245;9.14186865;2022-09-09T06:26:18;18.27;58.94
216;HTU21D;45701;48.81287245;9.14186865;2022-09-09T06:28:47;18.04;59.92
216;HTU21D;45701;48.81287245;9.14186865;2022-09-09T06:31:17;18.12;60.02
216;HTU21D;45701;48.81287245;9.14186865;2022-09-09T06:33:49;18.15;60.28
216;HTU21D;45701;48.81287245;9.14186865;2022-09-09T06:36:17;18.38;59.97
216;HTU21D;45701;48.81287245;9.14186865;2022-09-09T06:38:44;18.42;59.57
216;HTU21D;45701;48.81287245;9.14186865;2022-09-09T06:41:16;18.38;59.44
216;HTU21D;45701;48.81287245;9.14186865;2022-09-09T06:43:44;18.49;59.37
216;HTU21D;45701;48.81287245;9.14186865;2022-09-09T06:46:13;18.53;59.17
216;HTU21D;45701;48.81287245;9.14186865;2022-09-09T06:48:41;18.35;59.89
216;HTU21D;45701;48.81287245;9.14186865;2022-09-09T06:51:11;18.28;60.55
216;HTU21D;45701;48.81287245;9.14186865;2022-09-09T06:53:41;18.24;60.67
216;HTU21D;45701;48.81287245;9.14186865;2022-09-09T06:56:20;18.26;60.52
216;HTU21D;45701;48.81287245;9.14186865;2022-09-09T06:58:50;18.24;60.93
216;HTU21D;45701;48.81287245;9.14186865;2022-09-09T07:01:24;18.28;61.46
216;HTU21D;45701;48.81287245;9.14186865;2022-09-09T07:03:55;18.43;60.45
216;HTU21D;45701;48.81287245;9.14186865;2022-09-09T07:06:25;18.58;60.15
216;HTU21D;45701;48.81287245;9.14186865;2022-09-09T07:08:54;18.52;60.14
216;HTU21D;45701;48.81287245;9.14186865;2022-09-09T07:11:26;18.69;59.73
216;HTU21D;45701;48.81287245;9.14186865;2022-09-09T07:13:54;18.70;59.52
216;HTU21D;45701;48.81287245;9.14186865;2022-09-09T07:16:22;18.79;60.14
216;HTU21D;45701;48.81287245;9.14186865;2022-09-09T07:18:50;18.67;59.75
216;HTU21D;45701;48.81287245;9.14186865;2022-09-09T07:21:18;18.73;59.84
216;HTU21D;45701;48.81287245;9.14186865;2022-09-09T07:23:49;18.58;60.74
216;HTU21D;45701;48.81287245;9.14186865;2022-09-09T07:26:19;18.81;61.04
216;HTU21D;45701;48.81287245;9.14186865;2022-09-09T07:28:48;19.07;59.31
216;HTU21D;45701;48.81287245;9.14186865;2022-09-09T07:31:18;18.89;59.78
216;HTU21D;45701;48.81287245;9.14186865;2022-09-09T07:33:47;19.06;59.07
216;HTU21D;45701;48.81287245;9.14186865;2022-09-09T07:36:15;19.10;59.70
216;HTU21D;45701;48.81287245;9.14186865;2022-09-09T07:38:44;18.96;59.93
216;HTU21D;45701;48.81287245;9.14186865;2022-09-09T07:41:14;19.02;59.40
216;HTU21D;45701;48.81287245;9.14186865;2022-09-09T07:43:42;19.13;58.80
216;HTU21D;45701;48.81287245;9.14186865;2022-09-09T07:46:18;19.10;58.75
216;HTU21D;45701;48.81287245;9.14186865;2022-09-09T07:48:46;19.26;58.73
216;HTU21D;45701;48.81287245;9.14186865;2022-09-09T07:51:20;18.98;58.92
216;HTU21D;45701;48.81287245;9.14186865;2022-09-09T07:53:53;18.97;59.70
216;HTU21D;45701;48.81287245;9.14186865;2022-09-09T07:56:20;18.99;59.27
216;HTU21D;45701;48.81287245;9.14186865;2022-09-09T07:58:49;19.21;58.93
216;HTU21D;45701;48.81287245;9.14186865;2022-09-09T08:01:21;19.36;58.70
216;HTU21D;45701;48.81287245;9.14186865;2022-09-09T08:03:53;19.55;57.58
216;HTU21D;45701;48.81287245;9.14186865;2022-09-09T08:06:20;19.51;59.73
216;HTU21D;45701;48.81287245;9.14186865;2022-09-09T08:08:50;19.56;58.10
216;HTU21D;45701;48.81287245;9.14186865;2022-09-09T08:11:18;19.61;57.34
216;HTU21D;45701;48.81287245;9.14186865;2022-09-09T08:13:45;19.68;57.88
216;HTU21D;45701;48.81287245;9.14186865;2022-09-09T08:16:15;19.72;56.50
216;HTU21D;45701;48.81287245;9.14186865;2022-09-09T08:18:44;19.81;57.10
216;HTU21D;45701;48.81287245;9.14186865;2022-09-09T08:21:12;19.84;56.39
216;HTU21D;45701;48.81287245;9.14186865;2022-09-09T08:23:39;19.84;56.63
216;HTU21D;45701;48.81287245;9.14186865;2022-09-09T08:26:11;19.91;56.65
216;HTU21D;45701;48.81287245;9.14186865;2022-09-09T08:28:43;19.96;55.09
216;HTU21D;45701;48.81287245;9.14186865;2022-09-09T08:31:13;20.06;54.87
216;HTU21D;45701;48.81287245;9.14186865;2022-09-09T08:33:41;20.17;55.78
216;HTU21D;45701;48.81287245;9.14186865;2022-09-09T08:36:14;20.36;55.01
216;HTU21D;45701;48.81287245;9.14186865;2022-09-09T08:38:42;20.11;55.36
216;HTU21D;45701;48.81287245;9.14186865;2022-09-09T08:44:07;20.33;55.45
216;HTU21D;45701;48.81287245;9.14186865;2022-09-09T08:46:44;20.41;55.21
216;HTU21D;45701;48.81287245;9.14186865;2022-09-09T08:49:29;20.58;54.99
216;HTU21D;45701;48.81287245;9.14186865;2022-09-09T08:52:00;20.68;54.70
216;HTU21D;45701;48.81287245;9.14186865;2022-09-09T08:54:33;20.89;54.08
216;HTU21D;45701;48.81287245;9.14186865;2022-09-09T08:57:01;20.88;55.15
216;HTU21D;45701;48.81287245;9.14186865;2022-09-09T08:59:29;21.17;53.88
216;HTU21D;45701;48.81287245;9.14186865;2022-09-09T09:02:03;21.27;52.53
216;HTU21D;45701;48.81287245;9.14186865;2022-09-09T09:04:55;21.15;50.89
216;HTU21D;45701;48.81287245;9.14186865;2022-09-09T09:07:38;20.96;51.21
216;HTU21D;45701;48.81287245;9.14186865;2022-09-09T09:10:14;21.07;53.99
216;HTU21D;45701;48.81287245;9.14186865;2022-09-09T09:12:43;21.30;51.56
216;HTU21D;45701;48.81287245;9.14186865;2022-09-09T09:15:17;21.19;50.95
216;HTU21D;45701;48.81287245;9.14186865;2022-09-09T09:17:45;20.96;51.26
216;HTU21D;45701;48.81287245;9.14186865;2022-09-09T09:20:14;20.65;54.53
216;HTU21D;45701;48.81287245;9.14186865;2022-09-09T09:22:48;20.20;55.84
216;HTU21D;45701;48.81287245;9.14186865;2022-09-09T09:25:18;20.06;56.13
216;HTU21D;45701;48.81287245;9.14186865;2022-09-09T09:27:54;20.04;56.67
216;HTU21D;45701;48.81287245;9.14186865;2022-09-09T09:30:31;19.85;58.59
216;HTU21D;45701;48.81287245;9.14186865;2022-09-09T09:33:08;19.57;60.65
216;HTU21D;45701;48.81287245;9.14186865;2022-09-09T09:35:38;19.38;60.26
216;HTU21D;45701;48.81287245;9.14186865;2022-09-09T09:38:16;19.22;61.00
216;HTU21D;45701;48.81287245;9.14186865;2022-09-09T09:40:51;19.12;61.25
216;HTU21D;45701;48.81287245;9.14186865;2022-09-09T09:43:26;19.45;61.40
216;HTU21D;45701;48.81287245;9.14186865;2022-09-09T09:45:55;19.52;57.02
216;HTU21D;45701;48.81287245;9.14186865;2022-09-09T09:48:24;19.77;54.84
216;HTU21D;45701;48.81287245;9.14186865;2022-09-09T09:50:52;19.99;56.71
216;HTU21D;45701;48.81287245;9.14186865;2022-09-09T09:53:25;20.26;52.65
216;HTU21D;45701;48.81287245;9.14186865;2022-09-09T09:55:57;20.18;48.94
216;HTU21D;45701;48.81287245;9.14186865;2022-09-09T09:58:25;20.42;49.92
216;HTU21D;45701;48.81287245;9.14186865;2022-09-09T10:00:54;20.44;49.48
216;HTU21D;45701;48.81287245;9.14186865;2022-09-09T10:03:26;20.49;47.64
216;HTU21D;45701;48.81287245;9.14186865;2022-09-09T10:05:55;20.70;48.74
216;HTU21D;45701;48.81287245;9.14186865;2022-09-09T10:08:25;20.71;48.28
216;HTU21D;45701;48.81287245;9.14186865;2022-09-09T10:11:00;20.87;49.56
216;HTU21D;45701;48.81287245;9.14186865;2022-09-09T10:13:31;21.02;48.28
216;HTU21D;45701;48.81287245;9.14186865;2022-09-09T10:16:13;21.18;48.79
216;HTU21D;45701;48.81287245;9.14186865;2022-09-09T10:18:48;21.32;48.87
216;HTU21D;45701;48.81287245;9.14186865;2022-09-09T10:21:28;21.39;48.57
216;HTU21D;45701;48.81287245;9.14186865;2022-09-09T10:24:17;21.54;48.83
216;HTU21D;45701;48.81287245;9.14186865;2022-09-09T10:26:51;21.57;47.52
216;HTU21D;45701;48.81287245;9.14186865;2022-09-09T10:29:46;21.55;47.11
216;HTU21D;45701;48.81287245;9.14186865;2022-09-09T10:32:36;21.60;47.34
216;HTU21D;45701;48.81287245;9.14186865;2022-09-09T10:35:10;21.58;47.14
216;HTU21D;45701;48.81287245;9.14186865;2022-09-09T10:37:50;21.55;46.77
216;HTU21D;45701;48.81287245;9.14186865;2022-09-09T10:40:31;21.74;47.18
216;HTU21D;45701;48.81287245;9.14186865;2022-09-09T10:43:09;21.78;46.16
216;HTU21D;45701;48.81287245;9.14186865;2022-09-09T10:45:49;21.97;46.28
216;HTU21D;45701;48.81287245;9.14186865;2022-09-09T10:48:31;21.99;43.35
216;HTU21D;45701;48.81287245;9.14186865;2022-09-09T10:51:11;21.91;42.20
216;HTU21D;45701;48.81287245;9.14186865;2022-09-09T10:53:49;21.88;42.99
216;HTU21D;45701;48.81287245;9.14186865;2022-09-09T10:56:21;21.84;42.74
216;HTU21D;45701;48.81287245;9.14186865;2022-09-09T10:58:51;21.79;43.55
216;HTU21D;45701;48.81287245;9.14186865;2022-09-09T11:01:21;21.70;44.01
216;HTU21D;45701;48.81287245;9.14186865;2022-09-09T11:03:53;21.64;44.89
216;HTU21D;45701;48.81287245;9.14186865;2022-09-09T11:06:27;21.54;47.11
216;HTU21D;45701;48.81287245;9.14186865;2022-09-09T11:08:57;21.10;49.41
216;HTU21D;45701;48.81287245;9.14186865;2022-09-09T11:11:30;20.54;51.66
216;HTU21D;45701;48.81287245;9.14186865;2022-09-09T11:14:02;20.14;52.48
216;HTU21D;45701;48.81287245;9.14186865;2022-09-09T11:16:36;20.04;53.50
216;HTU21D;45701;48.81287245;9.14186865;2022-09-09T11:19:14;20.00;52.98
216;HTU21D;45701;48.81287245;9.14186865;2022-09-09T11:21:45;19.81;54.82
216;HTU21D;45701;48.81287245;9.14186865;2022-09-09T11:24:16;19.90;53.68
216;HTU21D;45701;48.81287245;9.14186865;2022-09-09T11:26:51;19.62;55.30
216;HTU21D;45701;48.81287245;9.14186865;2022-09-09T11:29:41;19.41;56.44
216;HTU21D;45701;48.81287245;9.14186865;2022-09-09T11:32:21;19.57;53.89
216;HTU21D;45701;48.81287245;9.14186865;2022-09-09T11:34:56;19.55;52.77
216;HTU21D;45701;48.81287245;9.14186865;2022-09-09T11:37:48;19.67;51.82
216;HTU21D;45701;48.81287245;9.14186865;2022-09-09T11:40:21;19.46;53.93
216;HTU21D;45701;48.81287245;9.14186865;2022-09-09T11:43:01;19.59;53.20
216;HTU21D;45701;48.81287245;9.14186865;2022-09-09T11:45:30;19.28;54.36
216;HTU21D;45701;48.81287245;9.14186865;2022-09-09T11:48:00;19.50;55.23
216;HTU21D;45701;48.81287245;9.14186865;2022-09-09T11:50:29;19.60;54.15
216;HTU21D;45701;48.81287245;9.14186865;2022-09-09T11:53:18;19.54;54.50
216;HTU21D;45701;48.81287245;9.14186865;2022-09-09T11:55:59;19.51;53.97
216;HTU21D;45701;48.81287245;9.14186865;2022-09-09T11:58:32;19.38;53.01
216;HTU21D;45701;48.81287245;9.14186865;2022-09-09T12:01:13;19.42;53.85
216;HTU21D;45701;48.81287245;9.14186865;2022-09-09T12:03:42;19.68;52.06
216;HTU21D;45701;48.81287245;9.14186865;2022-09-09T12:06:14;19.70;51.39
216;HTU21D;45701;48.81287245;9.14186865;2022-09-09T12:08:44;20.09;51.00
216;HTU21D;45701;48.81287245;9.14186865;2022-09-09T12:11:11;20.21;50.92
216;HTU21D;45701;48.81287245;9.14186865;2022-09-09T12:13:54;20.63;50.08
216;HTU21D;45701;48.81287245;9.14186865;2022-09-09T12:16:32;20.60;49.25
216;HTU21D;45701;48.81287245;9.14186865;2022-09-09T12:19:05;21.18;47.47
216;HTU21D;45701;48.81287245;9.14186865;2022-09-09T12:21:36;21.80;45.83
216;HTU21D;45701;48.81287245;9.14186865;2022-09-09T12:24:09;22.17;44.47
216;HTU21D;45701;48.81287245;9.14186865;2022-09-09T12:26:39;23.02;42.70
216;HTU21D;45701;48.81287245;9.14186865;2022-09-09T12:29:22;23.39;40.48
216;HTU21D;45701;48.81287245;9.14186865;2022-09-09T12:31:55;24.09;37.95
216;HTU21D;45701;48.81287245;9.14186865;2022-09-09T12:34:31;24.18;37.75
216;HTU21D;45701;48.81287245;9.14186865;2022-09-09T12:37:06;24.29;38.04
216;HTU21D;45701;48.81287245;9.14186865;2022-09-09T12:39:42;24.41;36.52
216;HTU21D;45701;48.81287245;9.14186865;2022-09-09T12:42:17;22.79;40.31
216;HTU21D;45701;48.81287245;9.14186865;2022-09-09T12:44:56;22.47;40.92
216;HTU21D;45701;48.81287245;9.14186865;2022-09-09T12:47:30;22.99;42.15
216;HTU21D;45701;48.81287245;9.14186865;2022-09-09T12:50:00;23.32;39.54
216;HTU21D;45701;48.81287245;9.14186865;2022-09-09T12:52:29;23.16;40.94
216;HTU21D;45701;48.81287245;9.14186865;2022-09-09T12:54:59;23.67;39.08
216;HTU21D;45701;48.81287245;9.14186865;2022-09-09T12:57:33;24.73;37.45
216;HTU21D;45701;48.81287245;9.14186865;2022-09-09T13:00:11;24.51;36.79
216;HTU21D;45701;48.81287245;9.14186865;2022-09-09T13:02:47;24.30;37.31
216;HTU21D;45701;48.81287245;9.14186865;2022-09-09T13:05:18;25.08;36.04
216;HTU21D;45701;48.81287245;9.14186865;2022-09-09T13:07:45;25.95;35.29
216;HTU21D;45701;48.81287245;9.14186865;2022-09-09T13:10:14;25.99;34.18
216;HTU21D;45701;48.81287245;9.14186865;2022-09-09T13:12:42;26.09;34.59
216;HTU21D;45701;48.81287245;9.14186865;2022-09-09T13:15:18;26.79;32.79
216;HTU21D;45701;48.81287245;9.14186865;2022-09-09T13:17:51;25.58;35.15
216;HTU21D;45701;48.81287245;9.14186865;2022-09-09T13:20:19;25.07;35.84
216;HTU21D;45701;48.81287245;9.14186865;2022-09-09T13:22:47;25.28;35.07
216;HTU21D;45701;48.81287245;9.14186865;2022-09-09T13:25:22;25.09;35.74
216;HTU21D;45701;48.81287245;9.14186865;2022-09-09T13:28:01;24.21;38.08
216;HTU21D;45701;48.81287245;9.14186865;2022-09-09T13:30:31;23.68;39.76
216;HTU21D;45701;48.81287245;9.14186865;2022-09-09T13:33:03;23.66;41.75
216;HTU21D;45701;48.81287245;9.14186865;2022-09-09T13:35:31;23.61;41.38
216;HTU21D;45701;48.81287245;9.14186865;2022-09-09T13:37:58;23.44;40.60
216;HTU21D;45701;48.81287245;9.14186865;2022-09-09T13:40:25;23.39;41.06
216;HTU21D;45701;48.81287245;9.14186865;2022-09-09T13:42:55;23.27;41.62
216;HTU21D;45701;48.81287245;9.14186865;2022-09-09T13:45:25;23.34;41.15
216;HTU21D;45701;48.81287245;9.14186865;2022-09-09T13:47:54;23.31;42.48
216;HTU21D;45701;48.81287245;9.14186865;2022-09-09T13:50:23;23.10;41.02
216;HTU21D;45701;48.81287245;9.14186865;2022-09-09T13:52:53;22.71;41.52
216;HTU21D;45701;48.81287245;9.14186865;2022-09-09T13:55:21;22.68;40.70
216;HTU21D;45701;48.81287245;9.14186865;2022-09-09T13:57:52;22.72;40.97
216;HTU21D;45701;48.81287245;9.14186865;2022-09-09T14:00:19;22.81;39.91
216;HTU21D;45701;48.81287245;9.14186865;2022-09-09T14:02:46;22.71;38.43